sensor_id;sensor_type;location;lat;lon;timestamp;pressure;altitude;pressure_sealevel;temperature;humidity
66176;BME280;52977;44.816;20.538;2023-07-28T00:02:22;99571.03;;;20.60;56.46
66176;BME280;52977;44.816;20.538;2023-07-28T00:04:48;99589.63;;;20.59;56.70
66176;BME280;52977;44.816;20.538;2023-07-28T00:07:14;99548.00;;;20.34;56.46
66176;BME280;52977;44.816;20.538;2023-07-28T00:09:41;99578.53;;;20.56;56.56
66176;BME280;52977;44.816;20.538;2023-07-28T00:12:07;99573.38;;;20.51;56.45
66176;BME280;52977;44.816;20.538;2023-07-28T00:14:33;99577.34;;;20.49;57.04
66176;BME280;52977;44.816;20.538;2023-07-28T00:16:59;99577.72;;;20.48;56.53
66176;BME280;52977;44.816;20.538;2023-07-28T00:19:26;99579.69;;;20.44;56.89
66176;BME280;52977;44.816;20.538;2023-07-28T00:21:52;99578.50;;;20.41;56.85
66176;BME280;52977;44.816;20.538;2023-07-28T00:24:19;99580.09;;;20.39;56.83
66176;BME280;52977;44.816;20.538;2023-07-28T00:26:45;99572.97;;;20.38;56.86
66176;BME280;52977;44.816;20.538;2023-07-28T00:29:11;99571.38;;;20.37;56.84
66176;BME280;52977;44.816;20.538;2023-07-28T00:31:37;99574.53;;;20.35;56.88
66176;BME280;52977;44.816;20.538;2023-07-28T00:34:03;99570.19;;;20.38;57.08
66176;BME280;52977;44.816;20.538;2023-07-28T00:36:30;99527.34;;;20.10;56.96
66176;BME280;52977;44.816;20.538;2023-07-28T00:38:57;99562.28;;;20.36;57.02
66176;BME280;52977;44.816;20.538;2023-07-28T00:41:23;99556.25;;;20.16;56.27
66176;BME280;52977;44.816;20.538;2023-07-28T00:43:49;99573.78;;;20.49;56.58
66176;BME280;52977;44.816;20.538;2023-07-28T00:46:15;99468.28;;;19.80;56.31
66176;BME280;52977;44.816;20.538;2023-07-28T00:48:41;99569.41;;;20.44;56.72
66176;BME280;52977;44.816;20.538;2023-07-28T00:51:07;99561.06;;;20.41;56.43
66176;BME280;52977;44.816;20.538;2023-07-28T00:53:34;99564.66;;;20.38;56.96
66176;BME280;52977;44.816;20.538;2023-07-28T00:56:04;99554.34;;;20.38;56.39
66176;BME280;52977;44.816;20.538;2023-07-28T00:58:31;99554.34;;;20.42;55.89
66176;BME280;52977;44.816;20.538;2023-07-28T01:00:57;99557.50;;;20.44;55.52
66176;BME280;52977;44.816;20.538;2023-07-28T01:03:24;99567.44;;;20.45;55.12
66176;BME280;52977;44.816;20.538;2023-07-28T01:11:04;99568.63;;;20.47;55.20
66176;BME280;52977;44.816;20.538;2023-07-28T01:13:30;99515.09;;;20.14;55.17
66176;BME280;52977;44.816;20.538;2023-07-28T01:15:56;99538.06;;;20.26;55.47
66176;BME280;52977;44.816;20.538;2023-07-28T01:18:23;99565.44;;;20.35;55.99
66176;BME280;52977;44.816;20.538;2023-07-28T01:20:50;99570.19;;;20.38;55.95
66176;BME280;52977;44.816;20.538;2023-07-28T01:26:25;99564.66;;;20.38;54.91
66176;BME280;52977;44.816;20.538;2023-07-28T01:28:52;99566.22;;;20.35;55.72
66176;BME280;52977;44.816;20.538;2023-07-28T01:31:18;99543.63;;;20.22;55.45
66176;BME280;52977;44.816;20.538;2023-07-28T01:33:44;99508.72;;;20.03;55.38
66176;BME280;52977;44.816;20.538;2023-07-28T01:36:10;99509.91;;;20.06;55.43
66176;BME280;52977;44.816;20.538;2023-07-28T01:38:37;99543.63;;;20.26;55.33
66176;BME280;52977;44.816;20.538;2023-07-28T01:41:03;99550.75;;;20.34;55.11
66176;BME280;52977;44.816;20.538;2023-07-28T01:43:29;99517.84;;;20.11;55.00
66176;BME280;52977;44.816;20.538;2023-07-28T01:45:55;99556.69;;;20.32;54.82
66176;BME280;52977;44.816;20.538;2023-07-28T01:48:21;99515.09;;;20.11;54.90
66176;BME280;52977;44.816;20.538;2023-07-28T01:50:47;99544.03;;;20.28;54.69
66176;BME280;52977;44.816;20.538;2023-07-28T01:53:14;99528.53;;;20.09;54.69
66176;BME280;52977;44.816;20.538;2023-07-28T01:55:40;99557.47;;;20.22;55.09
66176;BME280;52977;44.816;20.538;2023-07-28T01:58:06;99532.09;;;20.09;55.31
66176;BME280;52977;44.816;20.538;2023-07-28T02:00:32;99526.94;;;20.08;55.60
66176;BME280;52977;44.816;20.538;2023-07-28T02:02:58;99547.59;;;20.28;55.74
66176;BME280;52977;44.816;20.538;2023-07-28T02:05:27;99547.19;;;20.26;55.90
66176;BME280;52977;44.816;20.538;2023-07-28T02:07:55;99541.63;;;20.23;55.82
66176;BME280;52977;44.816;20.538;2023-07-28T02:10:22;99491.28;;;19.92;55.70
66176;BME280;52977;44.816;20.538;2023-07-28T02:12:49;99502.75;;;19.94;55.96
66176;BME280;52977;44.816;20.538;2023-07-28T02:15:17;99528.94;;;20.11;56.44
66176;BME280;52977;44.816;20.538;2023-07-28T02:17:43;99523.41;;;20.11;56.27
66176;BME280;52977;44.816;20.538;2023-07-28T02:20:09;99532.09;;;20.13;56.54
66176;BME280;52977;44.816;20.538;2023-07-28T02:22:39;99532.91;;;20.17;56.53
66176;BME280;52977;44.816;20.538;2023-07-28T02:25:06;99522.59;;;20.18;56.43
66176;BME280;52977;44.816;20.538;2023-07-28T02:27:32;99494.84;;;19.89;56.47
66176;BME280;52977;44.816;20.538;2023-07-28T02:29:58;99517.06;;;20.18;55.86
66176;BME280;52977;44.816;20.538;2023-07-28T02:32:23;99509.16;;;20.16;56.19
66176;BME280;52977;44.816;20.538;2023-07-28T02:34:50;99521.03;;;20.17;55.86
66176;BME280;52977;44.816;20.538;2023-07-28T02:37:16;99518.66;;;20.15;56.26
66176;BME280;52977;44.816;20.538;2023-07-28T02:39:42;99479.38;;;19.88;56.11
66176;BME280;52977;44.816;20.538;2023-07-28T02:42:08;99517.03;;;20.03;55.97
66176;BME280;52977;44.816;20.538;2023-07-28T02:44:34;99426.63;;;19.48;56.32
66176;BME280;52977;44.816;20.538;2023-07-28T02:47:01;99492.84;;;19.89;55.82
66176;BME280;52977;44.816;20.538;2023-07-28T02:49:27;99510.72;;;20.03;56.02
66176;BME280;52977;44.816;20.538;2023-07-28T02:51:53;99525.78;;;20.16;56.26
66176;BME280;52977;44.816;20.538;2023-07-28T02:54:19;99518.28;;;20.17;56.01
66176;BME280;52977;44.816;20.538;2023-07-28T02:56:47;99515.84;;;20.08;56.27
66176;BME280;52977;44.816;20.538;2023-07-28T02:59:13;99482.50;;;19.79;56.35
66176;BME280;52977;44.816;20.538;2023-07-28T03:01:39;99519.81;;;20.10;56.55
66176;BME280;52977;44.816;20.538;2023-07-28T03:04:06;99516.66;;;20.08;56.70
66176;BME280;52977;44.816;20.538;2023-07-28T03:06:52;99504.31;;;19.88;56.75
66176;BME280;52977;44.816;20.538;2023-07-28T03:09:19;99517.81;;;19.93;57.22
66176;BME280;52977;44.816;20.538;2023-07-28T03:11:58;99519.78;;;19.96;57.34
66176;BME280;52977;44.816;20.538;2023-07-28T03:14:24;99513.47;;;19.99;57.78
66176;BME280;52977;44.816;20.538;2023-07-28T03:16:51;99456.34;;;19.62;58.06
66176;BME280;52977;44.816;20.538;2023-07-28T03:19:18;99498.75;;;19.80;58.14
66176;BME280;52977;44.816;20.538;2023-07-28T03:21:44;99487.63;;;19.73;58.40
66176;BME280;52977;44.816;20.538;2023-07-28T03:24:10;99501.13;;;19.82;58.41
66176;BME280;52977;44.816;20.538;2023-07-28T03:26:36;99524.09;;;19.86;59.26
66176;BME280;52977;44.816;20.538;2023-07-28T03:29:02;99512.13;;;19.71;59.85
66176;BME280;52977;44.816;20.538;2023-07-28T03:31:29;99529.94;;;19.74;60.39
66176;BME280;52977;44.816;20.538;2023-07-28T03:33:55;99531.50;;;19.71;61.03
66176;BME280;52977;44.816;20.538;2023-07-28T03:36:23;99502.63;;;19.65;60.78
66176;BME280;52977;44.816;20.538;2023-07-28T03:38:49;99529.16;;;19.77;60.83
66176;BME280;52977;44.816;20.538;2023-07-28T03:41:15;99528.34;;;19.73;61.14
66176;BME280;52977;44.816;20.538;2023-07-28T03:43:42;99505.72;;;19.56;61.43
66176;BME280;52977;44.816;20.538;2023-07-28T03:46:08;99465.69;;;19.28;61.47
66176;BME280;52977;44.816;20.538;2023-07-28T03:48:34;99524.41;;;19.74;61.55
66176;BME280;52977;44.816;20.538;2023-07-28T03:50:59;99512.09;;;19.64;61.64
66176;BME280;52977;44.816;20.538;2023-07-28T03:53:25;99516.53;;;19.76;61.67
66176;BME280;52977;44.816;20.538;2023-07-28T03:55:51;99514.13;;;19.71;61.95
66176;BME280;52977;44.816;20.538;2023-07-28T03:58:16;99478.72;;;19.32;62.31
66176;BME280;52977;44.816;20.538;2023-07-28T04:00:42;99522.00;;;19.69;61.98
66176;BME280;52977;44.816;20.538;2023-07-28T04:03:08;99510.53;;;19.70;62.09
66176;BME280;52977;44.816;20.538;2023-07-28T04:05:36;99518.84;;;19.67;61.68
66176;BME280;52977;44.816;20.538;2023-07-28T04:08:02;99498.59;;;19.52;61.63
66176;BME280;52977;44.816;20.538;2023-07-28T04:10:28;99527.56;;;19.72;61.81
66176;BME280;52977;44.816;20.538;2023-07-28T04:12:54;99525.19;;;19.71;61.74
66176;BME280;52977;44.816;20.538;2023-07-28T04:15:20;99478.00;;;19.49;62.03
66176;BME280;52977;44.816;20.538;2023-07-28T04:17:46;99514.50;;;19.73;61.82
66176;BME280;52977;44.816;20.538;2023-07-28T04:20:13;99505.00;;;19.67;61.77
66176;BME280;52977;44.816;20.538;2023-07-28T04:22:39;99505.38;;;19.69;61.77
66176;BME280;52977;44.816;20.538;2023-07-28T04:25:05;99529.16;;;19.77;61.96
66176;BME280;52977;44.816;20.538;2023-07-28T04:27:33;99524.84;;;19.79;62.36
66176;BME280;52977;44.816;20.538;2023-07-28T04:30:02;99520.44;;;19.71;62.31
66176;BME280;52977;44.816;20.538;2023-07-28T04:32:28;99520.06;;;19.76;62.30
66176;BME280;52977;44.816;20.538;2023-07-28T04:34:59;99484.34;;;19.46;62.42
66176;BME280;52977;44.816;20.538;2023-07-28T04:37:50;99511.75;;;19.73;62.87
66176;BME280;52977;44.816;20.538;2023-07-28T04:40:27;99472.06;;;19.40;63.42
66176;BME280;52977;44.816;20.538;2023-07-28T04:42:53;99509.38;;;19.68;63.53
66176;BME280;52977;44.816;20.538;2023-07-28T04:45:19;99476.03;;;19.42;64.32
66176;BME280;52977;44.816;20.538;2023-07-28T04:47:46;99518.06;;;19.70;64.24
66176;BME280;52977;44.816;20.538;2023-07-28T04:50:13;99527.13;;;19.63;64.63
66176;BME280;52977;44.816;20.538;2023-07-28T04:52:51;99526.28;;;19.48;65.69
66176;BME280;52977;44.816;20.538;2023-07-28T04:55:40;99529.00;;;19.44;66.27
66176;BME280;52977;44.816;20.538;2023-07-28T04:58:07;99528.63;;;19.42;66.37
66176;BME280;52977;44.816;20.538;2023-07-28T05:00:48;99534.94;;;19.43;65.77
66176;BME280;52977;44.816;20.538;2023-07-28T05:03:14;99535.69;;;19.36;66.21
66176;BME280;52977;44.816;20.538;2023-07-28T05:05:48;99507.13;;;19.21;65.37
66176;BME280;52977;44.816;20.538;2023-07-28T05:08:14;99488.78;;;18.99;66.70
66176;BME280;52977;44.816;20.538;2023-07-28T05:10:41;99538.78;;;19.27;67.18
66176;BME280;52977;44.816;20.538;2023-07-28T05:13:09;99498.34;;;19.05;66.54
66176;BME280;52977;44.816;20.538;2023-07-28T05:15:37;99548.59;;;19.18;67.86
66176;BME280;52977;44.816;20.538;2023-07-28T05:18:05;99548.16;;;19.12;68.38
66176;BME280;52977;44.816;20.538;2023-07-28T05:20:37;99547.34;;;19.11;69.11
66176;BME280;52977;44.816;20.538;2023-07-28T05:23:10;99543.03;;;19.10;69.28
66176;BME280;52977;44.816;20.538;2023-07-28T05:25:36;99507.31;;;18.94;69.29
66176;BME280;52977;44.816;20.538;2023-07-28T05:28:03;99525.91;;;18.98;70.34
66176;BME280;52977;44.816;20.538;2023-07-28T05:30:32;99511.94;;;18.83;71.79
66176;BME280;52977;44.816;20.538;2023-07-28T05:32:58;99541.38;;;19.06;72.17
66176;BME280;52977;44.816;20.538;2023-07-28T05:35:31;99558.47;;;19.15;72.87
66176;BME280;52977;44.816;20.538;2023-07-28T05:37:57;99563.66;;;19.24;72.31
66176;BME280;52977;44.816;20.538;2023-07-28T05:40:23;99541.56;;;19.27;72.00
66176;BME280;52977;44.816;20.538;2023-07-28T05:42:50;99504.25;;;19.07;72.05
66176;BME280;52977;44.816;20.538;2023-07-28T05:45:16;99572.84;;;19.39;73.56
66176;BME280;52977;44.816;20.538;2023-07-28T05:47:42;99550.28;;;19.37;72.72
66176;BME280;52977;44.816;20.538;2023-07-28T05:50:08;99570.47;;;19.37;75.12
66176;BME280;52977;44.816;20.538;2023-07-28T05:52:34;99533.25;;;19.27;74.93
66176;BME280;52977;44.816;20.538;2023-07-28T05:55:01;99560.31;;;19.52;75.15
66176;BME280;52977;44.816;20.538;2023-07-28T05:57:27;99523.78;;;19.32;74.92
66176;BME280;52977;44.816;20.538;2023-07-28T05:59:53;99555.56;;;19.56;75.14
66176;BME280;52977;44.816;20.538;2023-07-28T06:02:20;99551.94;;;19.45;75.41
66176;BME280;52977;44.816;20.538;2023-07-28T06:04:51;99493.94;;;18.97;75.65
66176;BME280;52977;44.816;20.538;2023-07-28T06:07:17;99555.16;;;19.54;75.78
66176;BME280;52977;44.816;20.538;2023-07-28T06:09:43;99544.06;;;19.47;75.43
66176;BME280;52977;44.816;20.538;2023-07-28T06:12:09;99550.88;;;19.64;76.52
66176;BME280;52977;44.816;20.538;2023-07-28T06:14:35;99561.63;;;19.80;75.22
66176;BME280;52977;44.816;20.538;2023-07-28T06:17:03;99562.88;;;19.86;75.40
66176;BME280;52977;44.816;20.538;2023-07-28T06:19:31;99546.59;;;19.77;75.65
66176;BME280;52977;44.816;20.538;2023-07-28T06:21:57;99520.38;;;19.60;77.35
66176;BME280;52977;44.816;20.538;2023-07-28T06:24:22;99566.91;;;20.00;76.11
66176;BME280;52977;44.816;20.538;2023-07-28T06:26:49;99563.34;;;20.03;74.66
66176;BME280;52977;44.816;20.538;2023-07-28T06:29:16;99508.56;;;19.67;73.32
66176;BME280;52977;44.816;20.538;2023-07-28T06:31:42;99561.41;;;20.21;73.38
66176;BME280;52977;44.816;20.538;2023-07-28T06:34:08;99570.94;;;20.27;73.75
66176;BME280;52977;44.816;20.538;2023-07-28T06:36:35;99571.34;;;20.29;73.77
66176;BME280;52977;44.816;20.538;2023-07-28T06:39:01;99547.94;;;20.12;75.57
66176;BME280;52977;44.816;20.538;2023-07-28T06:41:27;99566.19;;;20.24;74.84
66176;BME280;52977;44.816;20.538;2023-07-28T06:43:58;99569.38;;;20.37;74.76
66176;BME280;52977;44.816;20.538;2023-07-28T06:46:24;99570.97;;;20.38;74.28
66176;BME280;52977;44.816;20.538;2023-07-28T06:48:49;99575.75;;;20.45;74.12
66176;BME280;52977;44.816;20.538;2023-07-28T06:51:15;99578.91;;;20.43;74.48
66176;BME280;52977;44.816;20.538;2023-07-28T06:53:41;99558.69;;;20.36;74.61
66176;BME280;52977;44.816;20.538;2023-07-28T06:56:07;99588.84;;;20.52;74.19
66176;BME280;52977;44.816;20.538;2023-07-28T06:58:32;99557.53;;;20.40;74.43
66176;BME280;52977;44.816;20.538;2023-07-28T07:00:58;99559.50;;;20.40;74.28
66176;BME280;52977;44.816;20.538;2023-07-28T07:03:24;99578.13;;;20.54;74.11
66176;BME280;52977;44.816;20.538;2023-07-28T07:05:51;99576.94;;;20.55;74.47
66176;BME280;52977;44.816;20.538;2023-07-28T07:08:17;99574.56;;;20.53;74.01
66176;BME280;52977;44.816;20.538;2023-07-28T07:10:50;99586.06;;;20.55;73.54
66176;BME280;52977;44.816;20.538;2023-07-28T07:13:16;99576.53;;;20.49;73.80
66176;BME280;52977;44.816;20.538;2023-07-28T07:15:43;99582.88;;;20.57;74.62
66176;BME280;52977;44.816;20.538;2023-07-28T07:18:09;99575.34;;;20.54;75.12
66176;BME280;52977;44.816;20.538;2023-07-28T07:20:38;99553.94;;;20.36;74.92
66176;BME280;52977;44.816;20.538;2023-07-28T07:23:05;99594.00;;;20.64;74.61
66176;BME280;52977;44.816;20.538;2023-07-28T07:25:31;99592.84;;;20.69;75.51
66176;BME280;52977;44.816;20.538;2023-07-28T07:28:01;99588.88;;;20.73;74.73
66176;BME280;52977;44.816;20.538;2023-07-28T07:30:27;99580.97;;;20.72;75.27
66176;BME280;52977;44.816;20.538;2023-07-28T07:32:54;99571.06;;;20.74;75.17
66176;BME280;52977;44.816;20.538;2023-07-28T07:35:20;99548.03;;;20.59;74.63
66176;BME280;52977;44.816;20.538;2023-07-28T07:37:46;99537.34;;;20.54;74.63
66176;BME280;52977;44.816;20.538;2023-07-28T07:40:12;99576.63;;;20.85;73.85
66176;BME280;52977;44.816;20.538;2023-07-28T07:42:45;99575.44;;;20.90;74.34
66176;BME280;52977;44.816;20.538;2023-07-28T07:45:11;99573.47;;;20.94;74.80
66176;BME280;52977;44.816;20.538;2023-07-28T07:47:39;99593.28;;;21.07;74.14
66176;BME280;52977;44.816;20.538;2023-07-28T07:50:06;99573.44;;;20.90;73.51
66176;BME280;52977;44.816;20.538;2023-07-28T07:52:34;99578.22;;;21.00;73.37
66176;BME280;52977;44.816;20.538;2023-07-28T07:55:01;99505.66;;;20.59;73.50
66176;BME280;52977;44.816;20.538;2023-07-28T07:57:28;99588.94;;;21.13;72.93
66176;BME280;52977;44.816;20.538;2023-07-28T07:59:54;99564.75;;;20.99;72.22
66176;BME280;52977;44.816;20.538;2023-07-28T08:02:19;99590.13;;;21.12;71.69
66176;BME280;52977;44.816;20.538;2023-07-28T08:04:46;99569.88;;;21.15;71.11
66176;BME280;52977;44.816;20.538;2023-07-28T08:07:12;99589.28;;;21.47;73.13
66176;BME280;52977;44.816;20.538;2023-07-28T08:09:38;99555.22;;;21.32;72.61
66176;BME280;52977;44.816;20.538;2023-07-28T08:12:04;99570.25;;;21.49;72.34
66176;BME280;52977;44.816;20.538;2023-07-28T08:14:31;99549.25;;;21.41;71.92
66176;BME280;52977;44.816;20.538;2023-07-28T08:16:57;99538.53;;;21.40;71.43
66176;BME280;52977;44.816;20.538;2023-07-28T08:19:23;99570.66;;;21.55;72.00
66176;BME280;52977;44.816;20.538;2023-07-28T08:21:49;99587.31;;;21.62;73.06
66176;BME280;52977;44.816;20.538;2023-07-28T08:24:15;99592.47;;;21.67;74.58
66176;BME280;52977;44.816;20.538;2023-07-28T08:26:41;99552.41;;;21.50;72.29
66176;BME280;52977;44.816;20.538;2023-07-28T08:29:07;99558.75;;;21.51;69.93
66176;BME280;52977;44.816;20.538;2023-07-28T08:31:34;99591.66;;;21.67;72.21
66176;BME280;52977;44.816;20.538;2023-07-28T08:34:00;99587.31;;;21.62;73.74
66176;BME280;52977;44.816;20.538;2023-07-28T08:36:26;99550.81;;;21.49;71.86
66176;BME280;52977;44.816;20.538;2023-07-28T08:38:52;99556.78;;;21.55;72.56
66176;BME280;52977;44.816;20.538;2023-07-28T08:41:19;99573.00;;;21.64;74.09
66176;BME280;52977;44.816;20.538;2023-07-28T08:43:45;99540.13;;;21.59;75.97
66176;BME280;52977;44.816;20.538;2023-07-28T08:46:11;99580.91;;;21.83;76.09
66176;BME280;52977;44.816;20.538;2023-07-28T08:48:39;99586.41;;;21.91;72.39
66176;BME280;52977;44.816;20.538;2023-07-28T08:51:04;99538.94;;;21.49;69.05
66176;BME280;52977;44.816;20.538;2023-07-28T08:53:30;99592.81;;;21.80;70.80
66176;BME280;52977;44.816;20.538;2023-07-28T08:55:57;99607.44;;;21.99;70.19
66176;BME280;52977;44.816;20.538;2023-07-28T08:58:23;99576.50;;;21.93;68.36
66176;BME280;52977;44.816;20.538;2023-07-28T09:00:51;99543.22;;;21.79;67.63
66176;BME280;52977;44.816;20.538;2023-07-28T09:03:19;99561.03;;;21.89;64.01
66176;BME280;52977;44.816;20.538;2023-07-28T09:05:46;99582.81;;;22.01;64.52
66176;BME280;52977;44.816;20.538;2023-07-28T09:08:13;99547.16;;;21.92;66.67
66176;BME280;52977;44.816;20.538;2023-07-28T09:10:47;99543.53;;;21.99;64.06
66176;BME280;52977;44.816;20.538;2023-07-28T09:13:18;99585.09;;;22.24;64.95
66176;BME280;52977;44.816;20.538;2023-07-28T09:15:46;99560.47;;;22.26;67.69
66176;BME280;52977;44.816;20.538;2023-07-28T09:18:15;99588.94;;;22.52;67.29
66176;BME280;52977;44.816;20.538;2023-07-28T09:20:41;99580.97;;;22.61;63.05
66176;BME280;52977;44.816;20.538;2023-07-28T09:23:09;99559.94;;;22.53;59.64
66176;BME280;52977;44.816;20.538;2023-07-28T09:25:37;99551.25;;;22.47;59.81
66176;BME280;52977;44.816;20.538;2023-07-28T09:28:04;99572.53;;;22.72;59.31
66176;BME280;52977;44.816;20.538;2023-07-28T09:30:48;99574.91;;;22.74;56.27
66176;BME280;52977;44.816;20.538;2023-07-28T09:33:31;99538.53;;;22.50;56.32
66176;BME280;52977;44.816;20.538;2023-07-28T09:36:15;99542.41;;;22.63;55.03
66176;BME280;52977;44.816;20.538;2023-07-28T09:38:48;99564.09;;;22.86;50.74
66176;BME280;52977;44.816;20.538;2023-07-28T09:41:15;99546.66;;;22.79;49.34
66176;BME280;52977;44.816;20.538;2023-07-28T09:43:41;99570.47;;;22.83;51.71
66176;BME280;52977;44.816;20.538;2023-07-28T09:46:09;99556.22;;;22.74;55.14
66176;BME280;52977;44.816;20.538;2023-07-28T09:48:44;99568.81;;;22.93;51.84
66176;BME280;52977;44.816;20.538;2023-07-28T09:51:18;99570.28;;;23.09;49.78
66176;BME280;52977;44.816;20.538;2023-07-28T09:54:24;99559.50;;;23.11;49.04
66176;BME280;52977;44.816;20.538;2023-07-28T09:56:55;99508.84;;;22.85;48.98
66176;BME280;52977;44.816;20.538;2023-07-28T09:59:41;99543.69;;;23.04;50.50
66176;BME280;52977;44.816;20.538;2023-07-28T10:02:08;99550.34;;;23.17;49.31
66176;BME280;52977;44.816;20.538;2023-07-28T10:04:35;99549.91;;;23.19;49.31
66176;BME280;52977;44.816;20.538;2023-07-28T10:07:02;99544.66;;;23.28;48.58
66176;BME280;52977;44.816;20.538;2023-07-28T10:09:30;99539.03;;;23.35;51.65
66176;BME280;52977;44.816;20.538;2023-07-28T10:12:00;99539.34;;;23.45;50.67
66176;BME280;52977;44.816;20.538;2023-07-28T10:14:36;99535.72;;;23.48;48.91
66176;BME280;52977;44.816;20.538;2023-07-28T10:17:06;99531.41;;;23.43;48.72
66176;BME280;52977;44.816;20.538;2023-07-28T10:19:35;99520.34;;;23.36;49.68
66176;BME280;52977;44.816;20.538;2023-07-28T10:22:06;99526.91;;;23.53;48.41
66176;BME280;52977;44.816;20.538;2023-07-28T10:25:01;99505.81;;;23.52;48.95
66176;BME280;52977;44.816;20.538;2023-07-28T10:27:35;99530.28;;;23.71;49.18
66176;BME280;52977;44.816;20.538;2023-07-28T10:30:10;99528.28;;;23.72;48.28
66176;BME280;52977;44.816;20.538;2023-07-28T10:32:44;99494.25;;;23.57;49.71
66176;BME280;52977;44.816;20.538;2023-07-28T10:37:44;99525.59;;;23.99;50.09
66176;BME280;52977;44.816;20.538;2023-07-28T10:42:57;99532.59;;;24.11;49.18
66176;BME280;52977;44.816;20.538;2023-07-28T10:45:26;99538.16;;;24.11;47.41
66176;BME280;52977;44.816;20.538;2023-07-28T10:47:55;99542.59;;;24.09;48.42
66176;BME280;52977;44.816;20.538;2023-07-28T10:50:22;99501.03;;;23.87;49.03
66176;BME280;52977;44.816;20.538;2023-07-28T10:52:49;99506.91;;;23.96;48.34
66176;BME280;52977;44.816;20.538;2023-07-28T10:55:20;99510.81;;;24.02;48.82
66176;BME280;52977;44.816;20.538;2023-07-28T10:57:48;99517.84;;;24.14;49.55
66176;BME280;52977;44.816;20.538;2023-07-28T11:00:18;99536.44;;;24.21;50.38
66176;BME280;52977;44.816;20.538;2023-07-28T11:02:50;99535.72;;;24.17;50.67
66176;BME280;52977;44.816;20.538;2023-07-28T11:07:51;99511.56;;;24.06;51.36
66176;BME280;52977;44.816;20.538;2023-07-28T11:10:18;99508.31;;;24.12;51.73
66176;BME280;52977;44.816;20.538;2023-07-28T11:12:48;99491.19;;;24.10;51.15
66176;BME280;52977;44.816;20.538;2023-07-28T11:15:15;99519.56;;;24.32;51.88
66176;BME280;52977;44.816;20.538;2023-07-28T11:17:50;99473.66;;;24.13;51.11
66176;BME280;52977;44.816;20.538;2023-07-28T11:20:17;99522.63;;;24.41;51.35
66176;BME280;52977;44.816;20.538;2023-07-28T11:22:45;99480.28;;;24.22;51.07
66176;BME280;52977;44.816;20.538;2023-07-28T11:25:12;99481.41;;;24.25;51.85
66176;BME280;52977;44.816;20.538;2023-07-28T11:27:39;99470.63;;;24.27;50.77
66176;BME280;52977;44.816;20.538;2023-07-28T11:30:09;99508.09;;;24.53;52.14
66176;BME280;52977;44.816;20.538;2023-07-28T11:32:38;99503.59;;;24.63;50.29
66176;BME280;52977;44.816;20.538;2023-07-28T11:35:09;99506.59;;;24.72;50.78
66176;BME280;52977;44.816;20.538;2023-07-28T11:37:37;99488.78;;;24.66;51.31
66176;BME280;52977;44.816;20.538;2023-07-28T11:40:05;99483.38;;;24.79;49.99
66176;BME280;52977;44.816;20.538;2023-07-28T11:42:42;99489.09;;;24.96;48.27
66176;BME280;52977;44.816;20.538;2023-07-28T11:45:10;99488.91;;;25.06;49.06
66176;BME280;52977;44.816;20.538;2023-07-28T11:47:38;99486.41;;;25.12;48.42
66176;BME280;52977;44.816;20.538;2023-07-28T11:50:04;99485.25;;;25.10;49.07
66176;BME280;52977;44.816;20.538;2023-07-28T11:55:02;99459.91;;;25.20;49.14
66176;BME280;52977;44.816;20.538;2023-07-28T11:57:29;99471.13;;;25.40;47.96
66176;BME280;52977;44.816;20.538;2023-07-28T11:59:59;99420.16;;;25.13;47.80
66176;BME280;52977;44.816;20.538;2023-07-28T12:02:27;99460.47;;;25.55;48.06
66176;BME280;52977;44.816;20.538;2023-07-28T12:04:54;99423.63;;;25.40;46.44
66176;BME280;52977;44.816;20.538;2023-07-28T12:07:31;99461.28;;;25.72;44.82
66176;BME280;52977;44.816;20.538;2023-07-28T12:10:05;99402.94;;;25.38;45.03
66176;BME280;52977;44.816;20.538;2023-07-28T12:12:41;99448.03;;;25.76;45.98
66176;BME280;52977;44.816;20.538;2023-07-28T12:15:27;99426.09;;;25.75;44.76
66176;BME280;52977;44.816;20.538;2023-07-28T12:20:40;99440.41;;;25.97;44.28
66176;BME280;52977;44.816;20.538;2023-07-28T12:23:07;99439.53;;;26.00;44.35
66176;BME280;52977;44.816;20.538;2023-07-28T12:25:36;99426.31;;;26.01;43.06
66176;BME280;52977;44.816;20.538;2023-07-28T12:28:02;99431.00;;;26.07;43.46
66176;BME280;52977;44.816;20.538;2023-07-28T12:30:28;99437.28;;;26.12;42.36
66176;BME280;52977;44.816;20.538;2023-07-28T12:32:54;99451.31;;;26.28;44.05
66176;BME280;52977;44.816;20.538;2023-07-28T12:35:21;99447.88;;;26.37;42.83
66176;BME280;52977;44.816;20.538;2023-07-28T12:37:50;99446.31;;;26.36;44.03
66176;BME280;52977;44.816;20.538;2023-07-28T12:40:18;99439.06;;;26.38;44.33
66176;BME280;52977;44.816;20.538;2023-07-28T12:42:45;99435.03;;;26.39;44.81
66176;BME280;52977;44.816;20.538;2023-07-28T12:45:14;99416.22;;;26.40;43.04
66176;BME280;52977;44.816;20.538;2023-07-28T12:47:42;99428.38;;;26.50;43.43
66176;BME280;52977;44.816;20.538;2023-07-28T12:50:09;99448.94;;;26.59;42.44
66176;BME280;52977;44.816;20.538;2023-07-28T12:52:36;99433.81;;;26.57;43.68
66176;BME280;52977;44.816;20.538;2023-07-28T12:55:02;99443.47;;;26.72;43.44
66176;BME280;52977;44.816;20.538;2023-07-28T12:57:29;99450.72;;;26.70;42.05
66176;BME280;52977;44.816;20.538;2023-07-28T12:59:55;99447.09;;;26.69;42.58
66176;BME280;52977;44.816;20.538;2023-07-28T13:02:21;99446.94;;;26.76;42.72
66176;BME280;52977;44.816;20.538;2023-07-28T13:04:47;99411.31;;;26.60;41.91
66176;BME280;52977;44.816;20.538;2023-07-28T13:07:13;99431.19;;;26.83;42.22
66176;BME280;52977;44.816;20.538;2023-07-28T13:09:38;99439.31;;;26.93;42.52
66176;BME280;52977;44.816;20.538;2023-07-28T13:12:04;99430.47;;;26.95;42.68
66176;BME280;52977;44.816;20.538;2023-07-28T13:14:30;99435.94;;;26.99;42.11
66176;BME280;52977;44.816;20.538;2023-07-28T13:16:55;99419.59;;;26.97;42.21